sensor_id;sensor_type;location;lat;lon;timestamp;P1;durP1;ratioP1;P2;durP2;ratioP2
23470;SDS011;11908;50.806;4.424;2023-01-09T00:01:21;2.95;;;1.48;;
23470;SDS011;11908;50.806;4.424;2023-01-09T00:03:51;3.80;;;1.38;;
23470;SDS011;11908;50.806;4.424;2023-01-09T00:06:17;4.20;;;1.35;;
23470;SDS011;11908;50.806;4.424;2023-01-09T00:08:43;2.63;;;1.30;;
23470;SDS011;11908;50.806;4.424;2023-01-09T00:11:09;5.72;;;1.60;;
23470;SDS011;11908;50.806;4.424;2023-01-09T00:13:34;6.05;;;1.20;;
23470;SDS011;11908;50.806;4.424;2023-01-09T00:16:02;3.08;;;1.20;;
23470;SDS011;11908;50.806;4.424;2023-01-09T00:18:29;4.22;;;1.70;;
23470;SDS011;11908;50.806;4.424;2023-01-09T00:20:57;6.22;;;1.50;;
23470;SDS011;11908;50.806;4.424;2023-01-09T00:23:27;6.97;;;1.48;;
23470;SDS011;11908;50.806;4.424;2023-01-09T00:28:32;4.57;;;1.52;;
23470;SDS011;11908;50.806;4.424;2023-01-09T00:31:01;6.35;;;1.45;;
23470;SDS011;11908;50.806;4.424;2023-01-09T00:33:29;6.13;;;1.50;;
23470;SDS011;11908;50.806;4.424;2023-01-09T00:36:03;6.13;;;1.67;;
23470;SDS011;11908;50.806;4.424;2023-01-09T00:38:29;6.80;;;2.00;;
23470;SDS011;11908;50.806;4.424;2023-01-09T00:40:55;6.22;;;1.77;;
23470;SDS011;11908;50.806;4.424;2023-01-09T00:43:31;6.85;;;1.83;;
23470;SDS011;11908;50.806;4.424;2023-01-09T00:46:02;4.78;;;1.90;;
23470;SDS011;11908;50.806;4.424;2023-01-09T00:48:30;7.25;;;1.75;;
23470;SDS011;11908;50.806;4.424;2023-01-09T00:50:57;5.57;;;1.50;;
23470;SDS011;11908;50.806;4.424;2023-01-09T00:53:26;5.05;;;1.63;;
23470;SDS011;11908;50.806;4.424;2023-01-09T00:55:57;3.05;;;1.27;;
23470;SDS011;11908;50.806;4.424;2023-01-09T00:58:25;4.03;;;1.65;;
23470;SDS011;11908;50.806;4.424;2023-01-09T01:00:50;3.65;;;1.50;;
23470;SDS011;11908;50.806;4.424;2023-01-09T01:03:16;5.88;;;1.58;;
23470;SDS011;11908;50.806;4.424;2023-01-09T01:05:42;6.30;;;1.40;;
23470;SDS011;11908;50.806;4.424;2023-01-09T01:08:26;9.00;;;1.65;;
23470;SDS011;11908;50.806;4.424;2023-01-09T01:10:52;6.07;;;1.30;;
23470;SDS011;11908;50.806;4.424;2023-01-09T01:13:17;4.25;;;1.60;;
23470;SDS011;11908;50.806;4.424;2023-01-09T01:15:44;7.90;;;1.55;;
23470;SDS011;11908;50.806;4.424;2023-01-09T01:18:10;5.70;;;1.58;;
23470;SDS011;11908;50.806;4.424;2023-01-09T01:20:41;6.40;;;1.30;;
23470;SDS011;11908;50.806;4.424;2023-01-09T01:23:08;7.63;;;1.50;;
23470;SDS011;11908;50.806;4.424;2023-01-09T01:25:37;7.63;;;2.08;;
23470;SDS011;11908;50.806;4.424;2023-01-09T01:28:04;2.97;;;1.30;;
23470;SDS011;11908;50.806;4.424;2023-01-09T01:30:31;7.78;;;1.50;;
23470;SDS011;11908;50.806;4.424;2023-01-09T01:32:57;4.03;;;1.52;;
23470;SDS011;11908;50.806;4.424;2023-01-09T01:35:23;8.02;;;1.40;;
23470;SDS011;11908;50.806;4.424;2023-01-09T01:37:50;11.40;;;1.80;;
23470;SDS011;11908;50.806;4.424;2023-01-09T01:40:16;5.43;;;1.42;;
23470;SDS011;11908;50.806;4.424;2023-01-09T01:42:46;6.90;;;1.50;;
23470;SDS011;11908;50.806;4.424;2023-01-09T01:45:17;6.50;;;1.70;;
23470;SDS011;11908;50.806;4.424;2023-01-09T01:47:57;6.20;;;2.20;;
23470;SDS011;11908;50.806;4.424;2023-01-09T01:58:44;5.28;;;1.33;;
23470;SDS011;11908;50.806;4.424;2023-01-09T02:04:17;6.53;;;1.88;;
23470;SDS011;11908;50.806;4.424;2023-01-09T02:06:44;3.47;;;1.45;;
23470;SDS011;11908;50.806;4.424;2023-01-09T02:09:13;5.45;;;1.40;;
23470;SDS011;11908;50.806;4.424;2023-01-09T02:11:44;4.50;;;1.30;;
23470;SDS011;11908;50.806;4.424;2023-01-09T02:14:11;7.88;;;1.30;;
23470;SDS011;11908;50.806;4.424;2023-01-09T02:16:53;6.40;;;1.38;;
23470;SDS011;11908;50.806;4.424;2023-01-09T02:22:18;4.78;;;1.30;;
23470;SDS011;11908;50.806;4.424;2023-01-09T02:27:42;6.20;;;1.30;;
23470;SDS011;11908;50.806;4.424;2023-01-09T02:30:48;7.07;;;1.40;;
23470;SDS011;11908;50.806;4.424;2023-01-09T02:33:25;3.70;;;1.33;;
23470;SDS011;11908;50.806;4.424;2023-01-09T02:39:10;7.05;;;1.55;;
23470;SDS011;11908;50.806;4.424;2023-01-09T02:44:16;7.93;;;1.55;;
23470;SDS011;11908;50.806;4.424;2023-01-09T02:46:42;9.27;;;2.17;;
23470;SDS011;11908;50.806;4.424;2023-01-09T02:49:08;5.13;;;1.63;;
23470;SDS011;11908;50.806;4.424;2023-01-09T02:51:35;8.90;;;1.70;;
23470;SDS011;11908;50.806;4.424;2023-01-09T02:54:25;9.32;;;1.88;;
23470;SDS011;11908;50.806;4.424;2023-01-09T03:02:55;9.55;;;1.80;;
23470;SDS011;11908;50.806;4.424;2023-01-09T03:08:17;8.30;;;2.10;;
23470;SDS011;11908;50.806;4.424;2023-01-09T03:13:17;6.25;;;1.83;;
23470;SDS011;11908;50.806;4.424;2023-01-09T03:15:45;8.60;;;1.75;;
23470;SDS011;11908;50.806;4.424;2023-01-09T03:18:15;9.48;;;2.38;;
23470;SDS011;11908;50.806;4.424;2023-01-09T03:20:45;10.13;;;1.98;;
23470;SDS011;11908;50.806;4.424;2023-01-09T03:23:11;6.45;;;1.73;;
23470;SDS011;11908;50.806;4.424;2023-01-09T03:25:37;6.20;;;1.65;;
23470;SDS011;11908;50.806;4.424;2023-01-09T03:28:04;6.88;;;1.60;;
23470;SDS011;11908;50.806;4.424;2023-01-09T03:30:32;7.97;;;1.70;;
23470;SDS011;11908;50.806;4.424;2023-01-09T03:32:59;8.38;;;1.80;;
23470;SDS011;11908;50.806;4.424;2023-01-09T03:35:25;6.45;;;1.48;;
23470;SDS011;11908;50.806;4.424;2023-01-09T03:37:51;7.30;;;1.52;;
23470;SDS011;11908;50.806;4.424;2023-01-09T03:40:18;10.30;;;1.83;;
23470;SDS011;11908;50.806;4.424;2023-01-09T03:42:44;9.77;;;1.70;;
23470;SDS011;11908;50.806;4.424;2023-01-09T03:45:10;6.10;;;1.58;;
23470;SDS011;11908;50.806;4.424;2023-01-09T03:47:36;7.57;;;1.52;;
23470;SDS011;11908;50.806;4.424;2023-01-09T03:50:02;7.30;;;1.63;;
23470;SDS011;11908;50.806;4.424;2023-01-09T03:52:28;7.43;;;1.40;;
23470;SDS011;11908;50.806;4.424;2023-01-09T03:54:53;6.72;;;1.50;;
23470;SDS011;11908;50.806;4.424;2023-01-09T03:57:19;4.03;;;1.10;;
23470;SDS011;11908;50.806;4.424;2023-01-09T03:59:45;12.88;;;1.70;;
23470;SDS011;11908;50.806;4.424;2023-01-09T04:02:10;7.40;;;1.65;;
23470;SDS011;11908;50.806;4.424;2023-01-09T04:04:36;9.80;;;1.40;;
23470;SDS011;11908;50.806;4.424;2023-01-09T04:07:02;6.72;;;1.60;;
23470;SDS011;11908;50.806;4.424;2023-01-09T04:09:27;9.52;;;1.50;;
23470;SDS011;11908;50.806;4.424;2023-01-09T04:11:53;6.65;;;1.90;;
23470;SDS011;11908;50.806;4.424;2023-01-09T04:14:19;8.48;;;2.22;;
23470;SDS011;11908;50.806;4.424;2023-01-09T04:16:44;10.88;;;1.58;;
23470;SDS011;11908;50.806;4.424;2023-01-09T04:19:10;9.98;;;2.00;;
23470;SDS011;11908;50.806;4.424;2023-01-09T04:21:36;10.65;;;1.88;;
23470;SDS011;11908;50.806;4.424;2023-01-09T04:24:01;15.90;;;2.70;;
23470;SDS011;11908;50.806;4.424;2023-01-09T04:26:27;8.05;;;1.90;;
23470;SDS011;11908;50.806;4.424;2023-01-09T04:28:53;8.63;;;2.00;;
23470;SDS011;11908;50.806;4.424;2023-01-09T04:31:19;7.93;;;1.90;;
23470;SDS011;11908;50.806;4.424;2023-01-09T04:33:44;8.95;;;2.08;;
23470;SDS011;11908;50.806;4.424;2023-01-09T04:36:11;10.35;;;2.90;;
23470;SDS011;11908;50.806;4.424;2023-01-09T04:38:36;9.27;;;2.08;;
23470;SDS011;11908;50.806;4.424;2023-01-09T04:41:02;11.52;;;2.13;;
23470;SDS011;11908;50.806;4.424;2023-01-09T04:43:28;7.30;;;2.00;;
23470;SDS011;11908;50.806;4.424;2023-01-09T04:45:54;11.00;;;2.67;;
23470;SDS011;11908;50.806;4.424;2023-01-09T04:48:19;8.32;;;1.73;;
23470;SDS011;11908;50.806;4.424;2023-01-09T04:50:45;8.52;;;2.45;;
23470;SDS011;11908;50.806;4.424;2023-01-09T04:53:10;10.55;;;2.13;;
23470;SDS011;11908;50.806;4.424;2023-01-09T04:55:36;13.80;;;2.95;;
23470;SDS011;11908;50.806;4.424;2023-01-09T04:58:02;11.85;;;1.70;;
23470;SDS011;11908;50.806;4.424;2023-01-09T05:00:27;10.18;;;3.38;;
23470;SDS011;11908;50.806;4.424;2023-01-09T05:02:53;7.95;;;1.98;;
23470;SDS011;11908;50.806;4.424;2023-01-09T05:05:19;7.82;;;1.88;;
23470;SDS011;11908;50.806;4.424;2023-01-09T05:07:45;6.22;;;1.95;;
23470;SDS011;11908;50.806;4.424;2023-01-09T05:10:11;8.25;;;1.60;;
23470;SDS011;11908;50.806;4.424;2023-01-09T05:12:36;6.85;;;1.85;;
23470;SDS011;11908;50.806;4.424;2023-01-09T05:15:03;9.52;;;1.75;;
23470;SDS011;11908;50.806;4.424;2023-01-09T05:17:30;10.82;;;2.00;;
23470;SDS011;11908;50.806;4.424;2023-01-09T05:19:56;10.07;;;1.48;;
23470;SDS011;11908;50.806;4.424;2023-01-09T05:22:22;11.90;;;2.05;;
23470;SDS011;11908;50.806;4.424;2023-01-09T05:24:47;8.88;;;2.20;;
23470;SDS011;11908;50.806;4.424;2023-01-09T05:27:13;7.63;;;1.92;;
23470;SDS011;11908;50.806;4.424;2023-01-09T05:29:39;6.75;;;2.20;;
23470;SDS011;11908;50.806;4.424;2023-01-09T05:32:04;9.25;;;2.33;;
23470;SDS011;11908;50.806;4.424;2023-01-09T05:34:30;8.32;;;1.65;;
23470;SDS011;11908;50.806;4.424;2023-01-09T05:36:56;12.65;;;1.70;;
23470;SDS011;11908;50.806;4.424;2023-01-09T05:39:21;11.85;;;2.08;;
23470;SDS011;11908;50.806;4.424;2023-01-09T05:41:47;4.03;;;1.75;;
23470;SDS011;11908;50.806;4.424;2023-01-09T05:44:13;11.05;;;1.92;;
23470;SDS011;11908;50.806;4.424;2023-01-09T05:46:39;8.80;;;1.95;;
23470;SDS011;11908;50.806;4.424;2023-01-09T05:49:04;9.98;;;1.88;;
23470;SDS011;11908;50.806;4.424;2023-01-09T05:51:30;10.13;;;1.75;;
23470;SDS011;11908;50.806;4.424;2023-01-09T05:53:56;11.45;;;1.60;;
23470;SDS011;11908;50.806;4.424;2023-01-09T05:56:22;7.22;;;1.50;;
23470;SDS011;11908;50.806;4.424;2023-01-09T05:58:48;9.40;;;1.80;;
23470;SDS011;11908;50.806;4.424;2023-01-09T06:01:14;10.27;;;1.83;;
23470;SDS011;11908;50.806;4.424;2023-01-09T06:03:39;6.85;;;1.40;;
23470;SDS011;11908;50.806;4.424;2023-01-09T06:06:06;4.95;;;1.35;;
23470;SDS011;11908;50.806;4.424;2023-01-09T06:08:31;11.77;;;1.85;;
23470;SDS011;11908;50.806;4.424;2023-01-09T06:10:57;7.35;;;1.63;;
23470;SDS011;11908;50.806;4.424;2023-01-09T06:13:23;8.98;;;1.70;;
23470;SDS011;11908;50.806;4.424;2023-01-09T06:15:49;3.22;;;1.60;;
23470;SDS011;11908;50.806;4.424;2023-01-09T06:18:14;4.38;;;1.33;;
23470;SDS011;11908;50.806;4.424;2023-01-09T06:20:40;5.15;;;1.38;;
23470;SDS011;11908;50.806;4.424;2023-01-09T06:23:08;4.15;;;1.27;;
23470;SDS011;11908;50.806;4.424;2023-01-09T06:25:34;9.52;;;1.77;;
23470;SDS011;11908;50.806;4.424;2023-01-09T06:28:00;5.03;;;1.38;;
23470;SDS011;11908;50.806;4.424;2023-01-09T06:30:25;8.82;;;1.30;;
23470;SDS011;11908;50.806;4.424;2023-01-09T06:32:51;5.63;;;1.20;;
23470;SDS011;11908;50.806;4.424;2023-01-09T06:35:17;6.82;;;1.67;;
23470;SDS011;11908;50.806;4.424;2023-01-09T06:37:45;7.55;;;1.52;;
23470;SDS011;11908;50.806;4.424;2023-01-09T06:40:11;5.43;;;1.70;;
23470;SDS011;11908;50.806;4.424;2023-01-09T06:42:37;5.85;;;1.25;;
23470;SDS011;11908;50.806;4.424;2023-01-09T06:45:06;7.80;;;1.35;;
23470;SDS011;11908;50.806;4.424;2023-01-09T06:47:32;6.00;;;1.40;;
23470;SDS011;11908;50.806;4.424;2023-01-09T06:49:58;5.68;;;1.30;;
23470;SDS011;11908;50.806;4.424;2023-01-09T06:52:23;9.15;;;1.65;;
23470;SDS011;11908;50.806;4.424;2023-01-09T06:54:49;5.00;;;1.13;;
23470;SDS011;11908;50.806;4.424;2023-01-09T06:57:15;5.93;;;1.27;;
23470;SDS011;11908;50.806;4.424;2023-01-09T06:59:40;7.72;;;1.45;;
23470;SDS011;11908;50.806;4.424;2023-01-09T07:02:16;7.35;;;1.50;;
23470;SDS011;11908;50.806;4.424;2023-01-09T07:04:43;5.47;;;1.38;;
23470;SDS011;11908;50.806;4.424;2023-01-09T07:07:09;3.92;;;1.30;;
23470;SDS011;11908;50.806;4.424;2023-01-09T07:09:35;4.63;;;1.52;;
23470;SDS011;11908;50.806;4.424;2023-01-09T07:12:00;4.88;;;1.33;;
23470;SDS011;11908;50.806;4.424;2023-01-09T07:14:26;5.10;;;1.67;;
23470;SDS011;11908;50.806;4.424;2023-01-09T07:16:52;3.88;;;1.20;;
23470;SDS011;11908;50.806;4.424;2023-01-09T07:19:17;7.70;;;1.42;;
23470;SDS011;11908;50.806;4.424;2023-01-09T07:21:43;8.23;;;1.55;;
23470;SDS011;11908;50.806;4.424;2023-01-09T07:24:09;6.95;;;1.30;;
23470;SDS011;11908;50.806;4.424;2023-01-09T07:26:34;5.50;;;1.23;;
23470;SDS011;11908;50.806;4.424;2023-01-09T07:29:00;8.65;;;1.50;;
23470;SDS011;11908;50.806;4.424;2023-01-09T07:31:26;9.90;;;1.73;;
23470;SDS011;11908;50.806;4.424;2023-01-09T07:33:52;5.57;;;1.77;;
23470;SDS011;11908;50.806;4.424;2023-01-09T07:36:17;9.13;;;1.65;;
23470;SDS011;11908;50.806;4.424;2023-01-09T07:38:43;6.32;;;1.52;;
23470;SDS011;11908;50.806;4.424;2023-01-09T07:41:09;9.50;;;1.65;;
23470;SDS011;11908;50.806;4.424;2023-01-09T07:43:35;6.05;;;1.60;;
23470;SDS011;11908;50.806;4.424;2023-01-09T07:46:01;7.00;;;1.40;;
23470;SDS011;11908;50.806;4.424;2023-01-09T07:48:27;11.50;;;2.33;;
23470;SDS011;11908;50.806;4.424;2023-01-09T07:50:53;6.78;;;1.55;;
23470;SDS011;11908;50.806;4.424;2023-01-09T07:53:18;7.38;;;1.70;;
23470;SDS011;11908;50.806;4.424;2023-01-09T07:55:44;12.48;;;2.20;;
23470;SDS011;11908;50.806;4.424;2023-01-09T07:58:10;10.02;;;2.03;;
23470;SDS011;11908;50.806;4.424;2023-01-09T08:00:36;5.38;;;1.48;;
23470;SDS011;11908;50.806;4.424;2023-01-09T08:03:01;10.35;;;2.00;;
23470;SDS011;11908;50.806;4.424;2023-01-09T08:05:27;6.57;;;1.55;;
23470;SDS011;11908;50.806;4.424;2023-01-09T08:07:53;7.13;;;1.55;;
23470;SDS011;11908;50.806;4.424;2023-01-09T08:10:18;8.02;;;2.03;;
23470;SDS011;11908;50.806;4.424;2023-01-09T08:12:45;10.20;;;1.67;;
23470;SDS011;11908;50.806;4.424;2023-01-09T08:15:11;8.02;;;1.80;;
23470;SDS011;11908;50.806;4.424;2023-01-09T08:17:39;9.25;;;1.65;;
23470;SDS011;11908;50.806;4.424;2023-01-09T08:20:06;5.65;;;1.63;;
23470;SDS011;11908;50.806;4.424;2023-01-09T08:22:32;11.57;;;1.63;;
23470;SDS011;11908;50.806;4.424;2023-01-09T08:24:58;10.95;;;2.10;;
23470;SDS011;11908;50.806;4.424;2023-01-09T08:27:24;5.03;;;1.33;;
23470;SDS011;11908;50.806;4.424;2023-01-09T08:29:49;5.85;;;1.33;;
23470;SDS011;11908;50.806;4.424;2023-01-09T08:32:15;7.57;;;1.20;;
23470;SDS011;11908;50.806;4.424;2023-01-09T08:34:41;9.75;;;1.92;;
23470;SDS011;11908;50.806;4.424;2023-01-09T08:37:06;12.10;;;1.67;;
23470;SDS011;11908;50.806;4.424;2023-01-09T08:39:32;3.78;;;1.00;;
23470;SDS011;11908;50.806;4.424;2023-01-09T08:41:59;3.15;;;1.08;;
23470;SDS011;11908;50.806;4.424;2023-01-09T08:44:44;7.60;;;1.02;;
23470;SDS011;11908;50.806;4.424;2023-01-09T08:47:28;2.17;;;0.85;;
23470;SDS011;11908;50.806;4.424;2023-01-09T08:49:57;3.25;;;0.80;;
23470;SDS011;11908;50.806;4.424;2023-01-09T08:52:23;2.03;;;0.80;;
23470;SDS011;11908;50.806;4.424;2023-01-09T08:54:48;1.58;;;0.65;;
23470;SDS011;11908;50.806;4.424;2023-01-09T08:57:14;5.30;;;1.00;;
23470;SDS011;11908;50.806;4.424;2023-01-09T08:59:40;3.20;;;0.90;;
23470;SDS011;11908;50.806;4.424;2023-01-09T09:02:05;5.53;;;0.70;;
23470;SDS011;11908;50.806;4.424;2023-01-09T09:04:31;2.70;;;1.08;;
23470;SDS011;11908;50.806;4.424;2023-01-09T09:06:57;3.70;;;0.70;;
23470;SDS011;11908;50.806;4.424;2023-01-09T09:09:22;1.08;;;0.50;;
23470;SDS011;11908;50.806;4.424;2023-01-09T09:11:49;6.93;;;1.00;;
23470;SDS011;11908;50.806;4.424;2023-01-09T09:14:15;6.78;;;1.02;;
23470;SDS011;11908;50.806;4.424;2023-01-09T09:17:00;2.63;;;0.85;;
23470;SDS011;11908;50.806;4.424;2023-01-09T09:19:25;2.05;;;0.70;;
23470;SDS011;11908;50.806;4.424;2023-01-09T09:21:51;2.42;;;0.70;;
23470;SDS011;11908;50.806;4.424;2023-01-09T09:24:17;4.88;;;1.00;;
23470;SDS011;11908;50.806;4.424;2023-01-09T09:26:43;3.97;;;0.65;;
23470;SDS011;11908;50.806;4.424;2023-01-09T09:29:08;3.85;;;0.60;;
23470;SDS011;11908;50.806;4.424;2023-01-09T09:31:35;2.03;;;0.90;;
23470;SDS011;11908;50.806;4.424;2023-01-09T09:34:03;3.47;;;0.80;;
23470;SDS011;11908;50.806;4.424;2023-01-09T09:36:29;2.25;;;0.90;;
23470;SDS011;11908;50.806;4.424;2023-01-09T09:38:55;2.13;;;0.55;;
23470;SDS011;11908;50.806;4.424;2023-01-09T09:47:15;1.45;;;0.70;;
23470;SDS011;11908;50.806;4.424;2023-01-09T09:53:28;6.35;;;3.72;;
23470;SDS011;11908;50.806;4.424;2023-01-09T09:56:17;1.40;;;0.75;;
23470;SDS011;11908;50.806;4.424;2023-01-09T09:58:50;1.23;;;0.60;;
23470;SDS011;11908;50.806;4.424;2023-01-09T10:01:50;2.30;;;0.70;;
23470;SDS011;11908;50.806;4.424;2023-01-09T10:04:19;2.20;;;0.38;;
23470;SDS011;11908;50.806;4.424;2023-01-09T10:06:49;4.30;;;0.70;;
23470;SDS011;11908;50.806;4.424;2023-01-09T10:11:59;2.78;;;0.80;;
23470;SDS011;11908;50.806;4.424;2023-01-09T10:14:36;1.52;;;0.60;;
23470;SDS011;11908;50.806;4.424;2023-01-09T10:25:11;1.77;;;0.70;;
23470;SDS011;11908;50.806;4.424;2023-01-09T10:35:44;1.08;;;0.63;;
23470;SDS011;11908;50.806;4.424;2023-01-09T10:38:30;3.72;;;0.75;;
23470;SDS011;11908;50.806;4.424;2023-01-09T10:41:11;4.07;;;0.98;;
23470;SDS011;11908;50.806;4.424;2023-01-09T10:44:28;2.50;;;1.00;;
23470;SDS011;11908;50.806;4.424;2023-01-09T10:46:32;1.15;;;0.55;;
23470;SDS011;11908;50.806;4.424;2023-01-09T10:49:04;4.90;;;1.10;;
23470;SDS011;11908;50.806;4.424;2023-01-09T10:51:47;3.35;;;1.13;;
23470;SDS011;11908;50.806;4.424;2023-01-09T10:54:14;2.45;;;1.10;;
23470;SDS011;11908;50.806;4.424;2023-01-09T10:56:44;1.60;;;0.82;;
23470;SDS011;11908;50.806;4.424;2023-01-09T10:59:22;2.08;;;1.00;;
23470;SDS011;11908;50.806;4.424;2023-01-09T11:01:48;5.72;;;1.17;;
23470;SDS011;11908;50.806;4.424;2023-01-09T11:04:19;7.75;;;1.30;;
23470;SDS011;11908;50.806;4.424;2023-01-09T11:06:51;2.90;;;1.08;;
23470;SDS011;11908;50.806;4.424;2023-01-09T11:09:55;4.68;;;1.00;;
23470;SDS011;11908;50.806;4.424;2023-01-09T11:12:32;3.95;;;1.10;;
23470;SDS011;11908;50.806;4.424;2023-01-09T11:17:40;2.85;;;1.05;;
23470;SDS011;11908;50.806;4.424;2023-01-09T11:20:25;6.03;;;1.20;;
23470;SDS011;11908;50.806;4.424;2023-01-09T11:22:57;4.38;;;1.25;;
23470;SDS011;11908;50.806;4.424;2023-01-09T11:25:24;4.43;;;1.08;;
23470;SDS011;11908;50.806;4.424;2023-01-09T11:30:27;3.30;;;1.00;;
23470;SDS011;11908;50.806;4.424;2023-01-09T11:32:57;3.72;;;1.40;;
23470;SDS011;11908;50.806;4.424;2023-01-09T11:35:27;3.38;;;1.08;;
23470;SDS011;11908;50.806;4.424;2023-01-09T11:38:09;3.25;;;1.30;;
23470;SDS011;11908;50.806;4.424;2023-01-09T11:41:01;2.90;;;1.42;;
23470;SDS011;11908;50.806;4.424;2023-01-09T11:46:01;2.47;;;1.20;;
23470;SDS011;11908;50.806;4.424;2023-01-09T11:51:14;3.17;;;1.20;;
23470;SDS011;11908;50.806;4.424;2023-01-09T11:53:44;3.38;;;1.15;;
23470;SDS011;11908;50.806;4.424;2023-01-09T11:56:19;5.85;;;1.05;;
23470;SDS011;11908;50.806;4.424;2023-01-09T11:58:44;2.75;;;1.48;;
23470;SDS011;11908;50.806;4.424;2023-01-09T12:01:59;4.80;;;1.60;;
23470;SDS011;11908;50.806;4.424;2023-01-09T12:04:26;3.92;;;0.90;;
23470;SDS011;11908;50.806;4.424;2023-01-09T12:15:31;7.47;;;2.00;;
23470;SDS011;11908;50.806;4.424;2023-01-09T12:23:26;6.35;;;1.42;;
23470;SDS011;11908;50.806;4.424;2023-01-09T12:26:15;4.80;;;1.40;;
23470;SDS011;11908;50.806;4.424;2023-01-09T12:32:08;5.05;;;1.63;;
23470;SDS011;11908;50.806;4.424;2023-01-09T12:45:59;5.50;;;1.58;;
23470;SDS011;11908;50.806;4.424;2023-01-09T12:57:06;5.45;;;1.67;;
23470;SDS011;11908;50.806;4.424;2023-01-09T12:59:43;5.88;;;2.03;;
23470;SDS011;11908;50.806;4.424;2023-01-09T13:02:24;4.72;;;2.08;;
23470;SDS011;11908;50.806;4.424;2023-01-09T13:05:01;7.45;;;1.90;;
23470;SDS011;11908;50.806;4.424;2023-01-09T13:07:40;5.20;;;1.83;;
23470;SDS011;11908;50.806;4.424;2023-01-09T13:10:55;8.80;;;1.90;;
23470;SDS011;11908;50.806;4.424;2023-01-09T13:12:58;8.40;;;2.13;;
23470;SDS011;11908;50.806;4.424;2023-01-09T13:15:40;9.45;;;2.22;;
23470;SDS011;11908;50.806;4.424;2023-01-09T13:20:41;7.43;;;1.98;;
23470;SDS011;11908;50.806;4.424;2023-01-09T13:23:19;5.78;;;1.90;;
23470;SDS011;11908;50.806;4.424;2023-01-09T13:25:56;10.77;;;2.20;;
23470;SDS011;11908;50.806;4.424;2023-01-09T13:28:27;12.18;;;2.67;;
23470;SDS011;11908;50.806;4.424;2023-01-09T13:33:42;7.78;;;2.22;;
23470;SDS011;11908;50.806;4.424;2023-01-09T13:36:22;8.57;;;2.75;;
23470;SDS011;11908;50.806;4.424;2023-01-09T13:38:50;11.05;;;2.38;;
23470;SDS011;11908;50.806;4.424;2023-01-09T13:41:17;10.27;;;2.88;;
23470;SDS011;11908;50.806;4.424;2023-01-09T13:44:06;11.52;;;2.80;;
23470;SDS011;11908;50.806;4.424;2023-01-09T13:46:47;11.55;;;2.75;;
23470;SDS011;11908;50.806;4.424;2023-01-09T13:52:01;13.15;;;2.78;;
23470;SDS011;11908;50.806;4.424;2023-01-09T13:57:34;8.50;;;2.63;;
23470;SDS011;11908;50.806;4.424;2023-01-09T14:07:37;10.00;;;2.90;;
23470;SDS011;11908;50.806;4.424;2023-01-09T14:10:07;12.52;;;2.80;;
23470;SDS011;11908;50.806;4.424;2023-01-09T14:12:53;13.18;;;3.38;;
23470;SDS011;11908;50.806;4.424;2023-01-09T14:18:00;13.25;;;3.17;;
23470;SDS011;11908;50.806;4.424;2023-01-09T14:20:29;10.80;;;2.88;;
23470;SDS011;11908;50.806;4.424;2023-01-09T14:23:24;17.80;;;2.78;;
23470;SDS011;11908;50.806;4.424;2023-01-09T14:25:52;10.35;;;2.10;;
23470;SDS011;11908;50.806;4.424;2023-01-09T14:28:22;8.05;;;2.35;;
23470;SDS011;11908;50.806;4.424;2023-01-09T14:44:43;14.27;;;2.60;;
23470;SDS011;11908;50.806;4.424;2023-01-09T14:47:33;8.75;;;2.63;;
23470;SDS011;11908;50.806;4.424;2023-01-09T14:50:05;7.88;;;2.20;;
23470;SDS011;11908;50.806;4.424;2023-01-09T14:52:39;7.10;;;2.42;;
23470;SDS011;11908;50.806;4.424;2023-01-09T14:55:35;10.77;;;2.22;;
23470;SDS011;11908;50.806;4.424;2023-01-09T15:00:50;11.38;;;2.30;;
23470;SDS011;11908;50.806;4.424;2023-01-09T15:03:23;11.93;;;2.30;;
23470;SDS011;11908;50.806;4.424;2023-01-09T15:05:52;7.68;;;2.17;;
23470;SDS011;11908;50.806;4.424;2023-01-09T15:08:20;10.30;;;2.17;;
23470;SDS011;11908;50.806;4.424;2023-01-09T15:10:50;7.15;;;2.10;;
23470;SDS011;11908;50.806;4.424;2023-01-09T15:13:19;9.60;;;2.42;;
23470;SDS011;11908;50.806;4.424;2023-01-09T15:16:00;6.57;;;1.63;;
23470;SDS011;11908;50.806;4.424;2023-01-09T15:18:30;7.57;;;2.00;;
23470;SDS011;11908;50.806;4.424;2023-01-09T15:21:00;7.47;;;2.47;;
23470;SDS011;11908;50.806;4.424;2023-01-09T15:23:27;9.48;;;1.77;;
23470;SDS011;11908;50.806;4.424;2023-01-09T15:25:55;8.05;;;2.00;;
23470;SDS011;11908;50.806;4.424;2023-01-09T15:28:26;9.38;;;2.17;;
23470;SDS011;11908;50.806;4.424;2023-01-09T15:31:10;6.88;;;2.00;;
23470;SDS011;11908;50.806;4.424;2023-01-09T15:33:40;7.32;;;1.83;;
23470;SDS011;11908;50.806;4.424;2023-01-09T15:36:12;8.50;;;2.33;;
23470;SDS011;11908;50.806;4.424;2023-01-09T15:38:42;10.88;;;2.10;;
23470;SDS011;11908;50.806;4.424;2023-01-09T15:41:09;8.80;;;2.08;;
23470;SDS011;11908;50.806;4.424;2023-01-09T15:43:59;9.63;;;2.80;;
23470;SDS011;11908;50.806;4.424;2023-01-09T15:46:26;5.15;;;2.38;;
23470;SDS011;11908;50.806;4.424;2023-01-09T15:48:52;7.25;;;1.92;;
23470;SDS011;11908;50.806;4.424;2023-01-09T15:51:18;6.70;;;1.90;;
23470;SDS011;11908;50.806;4.424;2023-01-09T15:53:45;8.13;;;2.17;;
23470;SDS011;11908;50.806;4.424;2023-01-09T15:56:19;4.47;;;1.80;;
23470;SDS011;11908;50.806;4.424;2023-01-09T15:58:51;7.30;;;2.03;;
23470;SDS011;11908;50.806;4.424;2023-01-09T16:03:44;8.82;;;1.50;;
23470;SDS011;11908;50.806;4.424;2023-01-09T16:06:13;6.93;;;1.90;;
23470;SDS011;11908;50.806;4.424;2023-01-09T16:08:47;8.63;;;2.58;;
23470;SDS011;11908;50.806;4.424;2023-01-09T16:14:21;10.50;;;2.08;;
23470;SDS011;11908;50.806;4.424;2023-01-09T16:16:44;10.27;;;2.38;;
23470;SDS011;11908;50.806;4.424;2023-01-09T16:19:27;6.38;;;2.45;;
23470;SDS011;11908;50.806;4.424;2023-01-09T16:22:01;9.18;;;2.83;;
23470;SDS011;11908;50.806;4.424;2023-01-09T16:24:31;9.80;;;2.95;;
23470;SDS011;11908;50.806;4.424;2023-01-09T16:27:17;11.18;;;3.15;;
23470;SDS011;11908;50.806;4.424;2023-01-09T16:29:49;11.35;;;2.83;;
23470;SDS011;11908;50.806;4.424;2023-01-09T16:32:20;9.37;;;3.10;;
23470;SDS011;11908;50.806;4.424;2023-01-09T16:34:54;15.05;;;3.15;;
23470;SDS011;11908;50.806;4.424;2023-01-09T16:37:22;9.45;;;3.22;;
23470;SDS011;11908;50.806;4.424;2023-01-09T16:42:54;18.35;;;4.00;;
23470;SDS011;11908;50.806;4.424;2023-01-09T16:45:37;11.88;;;3.10;;
23470;SDS011;11908;50.806;4.424;2023-01-09T16:50:37;8.73;;;3.40;;
23470;SDS011;11908;50.806;4.424;2023-01-09T16:53:17;10.15;;;3.42;;
23470;SDS011;11908;50.806;4.424;2023-01-09T16:55:46;11.13;;;3.65;;
23470;SDS011;11908;50.806;4.424;2023-01-09T16:58:17;9.30;;;3.60;;
23470;SDS011;11908;50.806;4.424;2023-01-09T17:00:49;14.15;;;4.78;;
23470;SDS011;11908;50.806;4.424;2023-01-09T17:03:16;8.63;;;4.40;;
23470;SDS011;11908;50.806;4.424;2023-01-09T17:05:43;11.07;;;4.40;;
23470;SDS011;11908;50.806;4.424;2023-01-09T17:10:49;9.32;;;4.72;;
23470;SDS011;11908;50.806;4.424;2023-01-09T17:13:15;13.18;;;3.88;;
23470;SDS011;11908;50.806;4.424;2023-01-09T17:15:41;9.57;;;4.65;;
23470;SDS011;11908;50.806;4.424;2023-01-09T17:18:12;11.13;;;4.10;;
23470;SDS011;11908;50.806;4.424;2023-01-09T17:20:43;8.68;;;4.30;;
23470;SDS011;11908;50.806;4.424;2023-01-09T17:23:09;8.70;;;4.40;;
23470;SDS011;11908;50.806;4.424;2023-01-09T17:25:35;9.18;;;4.60;;
23470;SDS011;11908;50.806;4.424;2023-01-09T17:28:20;9.35;;;4.45;;
23470;SDS011;11908;50.806;4.424;2023-01-09T17:33:24;8.77;;;5.53;;
23470;SDS011;11908;50.806;4.424;2023-01-09T17:35:51;10.85;;;5.00;;
23470;SDS011;11908;50.806;4.424;2023-01-09T17:38:16;11.48;;;5.28;;
23470;SDS011;11908;50.806;4.424;2023-01-09T17:40:42;11.57;;;5.53;;
23470;SDS011;11908;50.806;4.424;2023-01-09T17:43:09;11.23;;;5.85;;
23470;SDS011;11908;50.806;4.424;2023-01-09T17:45:36;13.27;;;6.22;;
23470;SDS011;11908;50.806;4.424;2023-01-09T17:48:04;13.00;;;5.50;;